sensor_id;sensor_type;location;lat;lon;timestamp;P1;durP1;ratioP1;P2;durP2;ratioP2
8993;SDS011;4532;50.886;4.700;2023-07-13T00:01:15;3.83;;;1.45;;
8993;SDS011;4532;50.886;4.700;2023-07-13T00:03:43;3.92;;;1.30;;
8993;SDS011;4532;50.886;4.700;2023-07-13T00:06:13;3.70;;;1.40;;
8993;SDS011;4532;50.886;4.700;2023-07-13T00:08:40;3.17;;;1.30;;
8993;SDS011;4532;50.886;4.700;2023-07-13T00:11:10;3.80;;;1.48;;
8993;SDS011;4532;50.886;4.700;2023-07-13T00:13:37;5.68;;;1.50;;
8993;SDS011;4532;50.886;4.700;2023-07-13T00:16:06;3.38;;;1.30;;
8993;SDS011;4532;50.886;4.700;2023-07-13T00:18:34;3.35;;;1.38;;
8993;SDS011;4532;50.886;4.700;2023-07-13T00:21:04;5.78;;;1.58;;
8993;SDS011;4532;50.886;4.700;2023-07-13T00:23:32;4.55;;;1.70;;
8993;SDS011;4532;50.886;4.700;2023-07-13T00:26:04;4.30;;;1.50;;
8993;SDS011;4532;50.886;4.700;2023-07-13T00:28:36;3.63;;;1.30;;
8993;SDS011;4532;50.886;4.700;2023-07-13T00:31:03;5.32;;;1.95;;
8993;SDS011;4532;50.886;4.700;2023-07-13T00:33:34;4.00;;;1.50;;
8993;SDS011;4532;50.886;4.700;2023-07-13T00:36:04;5.32;;;1.75;;
8993;SDS011;4532;50.886;4.700;2023-07-13T00:38:31;5.32;;;1.38;;
8993;SDS011;4532;50.886;4.700;2023-07-13T00:41:01;3.33;;;1.27;;
8993;SDS011;4532;50.886;4.700;2023-07-13T00:43:32;5.18;;;1.58;;
8993;SDS011;4532;50.886;4.700;2023-07-13T00:46:10;4.78;;;1.52;;
8993;SDS011;4532;50.886;4.700;2023-07-13T00:48:41;3.30;;;1.42;;
8993;SDS011;4532;50.886;4.700;2023-07-13T00:51:11;6.55;;;1.45;;
8993;SDS011;4532;50.886;4.700;2023-07-13T00:53:39;6.82;;;1.45;;
8993;SDS011;4532;50.886;4.700;2023-07-13T00:56:07;6.15;;;1.75;;
8993;SDS011;4532;50.886;4.700;2023-07-13T00:58:38;6.03;;;1.50;;
8993;SDS011;4532;50.886;4.700;2023-07-13T01:01:07;4.25;;;1.30;;
8993;SDS011;4532;50.886;4.700;2023-07-13T01:03:35;3.63;;;1.35;;
8993;SDS011;4532;50.886;4.700;2023-07-13T01:06:02;3.72;;;1.50;;
8993;SDS011;4532;50.886;4.700;2023-07-13T01:08:32;4.88;;;1.70;;
8993;SDS011;4532;50.886;4.700;2023-07-13T01:10:59;3.95;;;1.55;;
8993;SDS011;4532;50.886;4.700;2023-07-13T01:13:27;4.70;;;1.52;;
8993;SDS011;4532;50.886;4.700;2023-07-13T01:15:56;7.28;;;1.80;;
8993;SDS011;4532;50.886;4.700;2023-07-13T01:18:28;5.00;;;1.88;;
8993;SDS011;4532;50.886;4.700;2023-07-13T01:23:29;5.50;;;1.83;;
8993;SDS011;4532;50.886;4.700;2023-07-13T01:25:57;5.60;;;1.77;;
8993;SDS011;4532;50.886;4.700;2023-07-13T01:28:28;4.00;;;1.40;;
8993;SDS011;4532;50.886;4.700;2023-07-13T01:30:57;6.50;;;1.70;;
8993;SDS011;4532;50.886;4.700;2023-07-13T01:33:25;3.60;;;1.27;;
8993;SDS011;4532;50.886;4.700;2023-07-13T01:35:55;4.82;;;1.88;;
8993;SDS011;4532;50.886;4.700;2023-07-13T01:38:27;6.93;;;1.75;;
8993;SDS011;4532;50.886;4.700;2023-07-13T01:40:54;5.45;;;1.98;;
8993;SDS011;4532;50.886;4.700;2023-07-13T01:43:23;4.32;;;1.52;;
8993;SDS011;4532;50.886;4.700;2023-07-13T01:45:51;4.32;;;1.75;;
8993;SDS011;4532;50.886;4.700;2023-07-13T01:48:18;3.75;;;1.35;;
8993;SDS011;4532;50.886;4.700;2023-07-13T01:50:46;3.58;;;1.50;;
8993;SDS011;4532;50.886;4.700;2023-07-13T01:53:16;7.50;;;1.80;;
8993;SDS011;4532;50.886;4.700;2023-07-13T01:55:43;6.03;;;1.83;;
8993;SDS011;4532;50.886;4.700;2023-07-13T01:58:13;5.45;;;1.52;;
8993;SDS011;4532;50.886;4.700;2023-07-13T02:00:47;6.07;;;1.63;;
8993;SDS011;4532;50.886;4.700;2023-07-13T02:03:16;5.38;;;1.60;;
8993;SDS011;4532;50.886;4.700;2023-07-13T02:05:44;5.78;;;2.03;;
8993;SDS011;4532;50.886;4.700;2023-07-13T02:08:17;3.97;;;1.80;;
8993;SDS011;4532;50.886;4.700;2023-07-13T02:10:45;4.13;;;1.60;;
8993;SDS011;4532;50.886;4.700;2023-07-13T02:13:14;4.60;;;1.70;;
8993;SDS011;4532;50.886;4.700;2023-07-13T02:15:41;6.53;;;1.90;;
8993;SDS011;4532;50.886;4.700;2023-07-13T02:18:08;6.20;;;2.10;;
8993;SDS011;4532;50.886;4.700;2023-07-13T02:20:41;4.85;;;1.63;;
8993;SDS011;4532;50.886;4.700;2023-07-13T02:23:13;6.13;;;1.70;;
8993;SDS011;4532;50.886;4.700;2023-07-13T02:25:45;3.63;;;1.67;;
8993;SDS011;4532;50.886;4.700;2023-07-13T02:28:12;5.80;;;1.83;;
8993;SDS011;4532;50.886;4.700;2023-07-13T02:30:39;5.05;;;1.73;;
8993;SDS011;4532;50.886;4.700;2023-07-13T02:33:11;7.00;;;2.03;;
8993;SDS011;4532;50.886;4.700;2023-07-13T02:35:41;6.53;;;1.65;;
8993;SDS011;4532;50.886;4.700;2023-07-13T02:38:08;5.35;;;1.60;;
8993;SDS011;4532;50.886;4.700;2023-07-13T02:40:36;5.95;;;1.77;;
8993;SDS011;4532;50.886;4.700;2023-07-13T02:43:09;8.15;;;1.88;;
8993;SDS011;4532;50.886;4.700;2023-07-13T02:45:36;7.93;;;2.15;;
8993;SDS011;4532;50.886;4.700;2023-07-13T02:48:03;6.35;;;2.30;;
8993;SDS011;4532;50.886;4.700;2023-07-13T02:50:33;9.02;;;2.30;;
8993;SDS011;4532;50.886;4.700;2023-07-13T02:53:03;4.35;;;1.65;;
8993;SDS011;4532;50.886;4.700;2023-07-13T02:55:30;6.70;;;2.45;;
8993;SDS011;4532;50.886;4.700;2023-07-13T02:57:57;4.88;;;1.65;;
8993;SDS011;4532;50.886;4.700;2023-07-13T03:00:25;4.80;;;1.80;;
8993;SDS011;4532;50.886;4.700;2023-07-13T03:02:52;6.80;;;1.92;;
8993;SDS011;4532;50.886;4.700;2023-07-13T03:05:22;6.25;;;1.90;;
8993;SDS011;4532;50.886;4.700;2023-07-13T03:07:51;5.47;;;1.90;;
8993;SDS011;4532;50.886;4.700;2023-07-13T03:10:24;6.05;;;2.13;;
8993;SDS011;4532;50.886;4.700;2023-07-13T03:12:51;4.60;;;2.03;;
8993;SDS011;4532;50.886;4.700;2023-07-13T03:15:21;4.70;;;1.70;;
8993;SDS011;4532;50.886;4.700;2023-07-13T03:17:48;6.68;;;2.28;;
8993;SDS011;4532;50.886;4.700;2023-07-13T03:20:16;6.57;;;2.22;;
8993;SDS011;4532;50.886;4.700;2023-07-13T03:22:43;6.65;;;2.10;;
8993;SDS011;4532;50.886;4.700;2023-07-13T03:25:10;7.10;;;2.10;;
8993;SDS011;4532;50.886;4.700;2023-07-13T03:27:38;7.05;;;2.00;;
8993;SDS011;4532;50.886;4.700;2023-07-13T03:30:05;5.93;;;2.03;;
8993;SDS011;4532;50.886;4.700;2023-07-13T03:32:35;10.48;;;2.40;;
8993;SDS011;4532;50.886;4.700;2023-07-13T03:35:05;5.30;;;2.00;;
8993;SDS011;4532;50.886;4.700;2023-07-13T03:37:32;6.65;;;2.08;;
8993;SDS011;4532;50.886;4.700;2023-07-13T03:39:59;4.55;;;1.80;;
8993;SDS011;4532;50.886;4.700;2023-07-13T03:42:29;5.78;;;2.08;;
8993;SDS011;4532;50.886;4.700;2023-07-13T03:44:56;5.07;;;2.00;;
8993;SDS011;4532;50.886;4.700;2023-07-13T03:47:26;9.27;;;2.08;;
8993;SDS011;4532;50.886;4.700;2023-07-13T03:49:55;4.93;;;1.80;;
8993;SDS011;4532;50.886;4.700;2023-07-13T03:52:23;8.20;;;2.25;;
8993;SDS011;4532;50.886;4.700;2023-07-13T03:54:52;6.35;;;2.00;;
8993;SDS011;4532;50.886;4.700;2023-07-13T03:57:21;4.93;;;1.98;;
8993;SDS011;4532;50.886;4.700;2023-07-13T03:59:49;5.60;;;2.25;;
8993;SDS011;4532;50.886;4.700;2023-07-13T04:02:21;5.63;;;2.20;;
8993;SDS011;4532;50.886;4.700;2023-07-13T04:04:48;9.48;;;2.50;;
8993;SDS011;4532;50.886;4.700;2023-07-13T04:07:18;4.90;;;2.00;;
8993;SDS011;4532;50.886;4.700;2023-07-13T04:09:48;6.78;;;2.13;;
8993;SDS011;4532;50.886;4.700;2023-07-13T04:12:20;4.50;;;1.65;;
8993;SDS011;4532;50.886;4.700;2023-07-13T04:14:47;7.10;;;2.15;;
8993;SDS011;4532;50.886;4.700;2023-07-13T04:17:14;8.68;;;1.90;;
8993;SDS011;4532;50.886;4.700;2023-07-13T04:19:44;5.15;;;2.20;;
8993;SDS011;4532;50.886;4.700;2023-07-13T04:22:12;9.82;;;2.25;;
8993;SDS011;4532;50.886;4.700;2023-07-13T04:24:39;6.72;;;2.03;;
8993;SDS011;4532;50.886;4.700;2023-07-13T04:27:07;5.95;;;2.17;;
8993;SDS011;4532;50.886;4.700;2023-07-13T04:29:34;5.40;;;1.98;;
8993;SDS011;4532;50.886;4.700;2023-07-13T04:32:04;5.50;;;2.08;;
8993;SDS011;4532;50.886;4.700;2023-07-13T04:34:36;6.18;;;1.95;;
8993;SDS011;4532;50.886;4.700;2023-07-13T04:37:07;11.75;;;2.35;;
8993;SDS011;4532;50.886;4.700;2023-07-13T04:39:37;7.07;;;1.90;;
8993;SDS011;4532;50.886;4.700;2023-07-13T04:42:06;5.40;;;2.08;;
8993;SDS011;4532;50.886;4.700;2023-07-13T04:44:34;6.00;;;2.00;;
8993;SDS011;4532;50.886;4.700;2023-07-13T04:47:01;8.60;;;2.17;;
8993;SDS011;4532;50.886;4.700;2023-07-13T04:49:30;6.75;;;2.00;;
8993;SDS011;4532;50.886;4.700;2023-07-13T04:52:00;6.60;;;1.90;;
8993;SDS011;4532;50.886;4.700;2023-07-13T04:54:32;6.07;;;2.08;;
8993;SDS011;4532;50.886;4.700;2023-07-13T04:57:02;8.18;;;3.00;;
8993;SDS011;4532;50.886;4.700;2023-07-13T04:59:32;7.93;;;2.55;;
8993;SDS011;4532;50.886;4.700;2023-07-13T05:02:02;9.63;;;2.00;;
8993;SDS011;4532;50.886;4.700;2023-07-13T05:04:32;7.05;;;2.47;;
8993;SDS011;4532;50.886;4.700;2023-07-13T05:07:06;4.68;;;2.00;;
8993;SDS011;4532;50.886;4.700;2023-07-13T05:09:36;7.30;;;2.45;;
8993;SDS011;4532;50.886;4.700;2023-07-13T05:12:08;8.40;;;2.25;;
8993;SDS011;4532;50.886;4.700;2023-07-13T05:14:37;7.22;;;2.22;;
8993;SDS011;4532;50.886;4.700;2023-07-13T05:17:05;7.32;;;2.60;;
8993;SDS011;4532;50.886;4.700;2023-07-13T05:19:34;6.82;;;2.50;;
8993;SDS011;4532;50.886;4.700;2023-07-13T05:22:04;9.30;;;2.55;;
8993;SDS011;4532;50.886;4.700;2023-07-13T05:24:32;8.25;;;2.35;;
8993;SDS011;4532;50.886;4.700;2023-07-13T05:27:01;7.40;;;2.50;;
8993;SDS011;4532;50.886;4.700;2023-07-13T05:29:28;7.82;;;2.30;;
8993;SDS011;4532;50.886;4.700;2023-07-13T05:31:58;7.65;;;2.20;;
8993;SDS011;4532;50.886;4.700;2023-07-13T05:34:30;9.18;;;2.83;;
8993;SDS011;4532;50.886;4.700;2023-07-13T05:37:01;9.52;;;2.67;;
8993;SDS011;4532;50.886;4.700;2023-07-13T05:39:28;6.85;;;2.55;;
8993;SDS011;4532;50.886;4.700;2023-07-13T05:41:58;9.32;;;2.63;;
8993;SDS011;4532;50.886;4.700;2023-07-13T05:44:28;9.13;;;2.38;;
8993;SDS011;4532;50.886;4.700;2023-07-13T05:46:55;8.10;;;2.50;;
8993;SDS011;4532;50.886;4.700;2023-07-13T05:49:23;9.80;;;3.22;;
8993;SDS011;4532;50.886;4.700;2023-07-13T05:51:53;5.90;;;2.58;;
8993;SDS011;4532;50.886;4.700;2023-07-13T05:54:20;10.68;;;2.60;;
8993;SDS011;4532;50.886;4.700;2023-07-13T05:56:47;6.55;;;2.65;;
8993;SDS011;4532;50.886;4.700;2023-07-13T05:59:14;8.25;;;2.70;;
8993;SDS011;4532;50.886;4.700;2023-07-13T06:01:41;9.32;;;2.50;;
8993;SDS011;4532;50.886;4.700;2023-07-13T06:04:11;12.05;;;2.63;;
8993;SDS011;4532;50.886;4.700;2023-07-13T06:06:41;9.65;;;3.08;;
8993;SDS011;4532;50.886;4.700;2023-07-13T06:09:08;9.15;;;2.65;;
8993;SDS011;4532;50.886;4.700;2023-07-13T06:11:40;8.27;;;2.58;;
8993;SDS011;4532;50.886;4.700;2023-07-13T06:14:10;9.02;;;3.22;;
8993;SDS011;4532;50.886;4.700;2023-07-13T06:16:40;8.77;;;2.75;;
8993;SDS011;4532;50.886;4.700;2023-07-13T06:19:10;10.18;;;2.78;;
8993;SDS011;4532;50.886;4.700;2023-07-13T06:21:40;10.77;;;3.10;;
8993;SDS011;4532;50.886;4.700;2023-07-13T06:24:07;7.50;;;2.38;;
8993;SDS011;4532;50.886;4.700;2023-07-13T06:26:36;12.63;;;3.22;;
8993;SDS011;4532;50.886;4.700;2023-07-13T06:29:04;9.90;;;3.30;;
8993;SDS011;4532;50.886;4.700;2023-07-13T06:31:33;9.02;;;2.78;;
8993;SDS011;4532;50.886;4.700;2023-07-13T06:34:03;9.93;;;2.78;;
8993;SDS011;4532;50.886;4.700;2023-07-13T06:36:38;9.27;;;3.00;;
8993;SDS011;4532;50.886;4.700;2023-07-13T06:39:08;10.15;;;2.85;;
8993;SDS011;4532;50.886;4.700;2023-07-13T06:41:37;8.10;;;2.75;;
8993;SDS011;4532;50.886;4.700;2023-07-13T06:44:05;8.23;;;2.70;;
8993;SDS011;4532;50.886;4.700;2023-07-13T06:46:33;11.00;;;2.90;;
8993;SDS011;4532;50.886;4.700;2023-07-13T06:49:02;10.88;;;3.00;;
8993;SDS011;4532;50.886;4.700;2023-07-13T06:51:32;8.48;;;2.90;;
8993;SDS011;4532;50.886;4.700;2023-07-13T06:53:59;10.73;;;2.85;;
8993;SDS011;4532;50.886;4.700;2023-07-13T06:56:28;7.20;;;2.25;;
8993;SDS011;4532;50.886;4.700;2023-07-13T06:58:58;5.60;;;2.30;;
8993;SDS011;4532;50.886;4.700;2023-07-13T07:01:28;8.60;;;2.75;;
8993;SDS011;4532;50.886;4.700;2023-07-13T07:03:57;9.15;;;3.10;;
8993;SDS011;4532;50.886;4.700;2023-07-13T07:06:29;12.32;;;3.08;;
8993;SDS011;4532;50.886;4.700;2023-07-13T07:08:56;11.68;;;2.70;;
8993;SDS011;4532;50.886;4.700;2023-07-13T07:11:26;11.65;;;3.05;;
8993;SDS011;4532;50.886;4.700;2023-07-13T07:13:56;11.10;;;3.30;;
8993;SDS011;4532;50.886;4.700;2023-07-13T07:16:25;11.75;;;3.40;;
8993;SDS011;4532;50.886;4.700;2023-07-13T07:18:57;10.02;;;3.00;;
8993;SDS011;4532;50.886;4.700;2023-07-13T07:21:27;7.15;;;2.15;;
8993;SDS011;4532;50.886;4.700;2023-07-13T07:23:54;11.07;;;3.13;;
8993;SDS011;4532;50.886;4.700;2023-07-13T07:26:21;7.82;;;2.75;;
8993;SDS011;4532;50.886;4.700;2023-07-13T07:28:55;8.68;;;3.17;;
8993;SDS011;4532;50.886;4.700;2023-07-13T07:31:26;8.65;;;2.88;;
8993;SDS011;4532;50.886;4.700;2023-07-13T07:33:56;9.68;;;2.83;;
8993;SDS011;4532;50.886;4.700;2023-07-13T07:36:23;9.57;;;3.00;;
8993;SDS011;4532;50.886;4.700;2023-07-13T07:38:57;6.78;;;3.15;;
8993;SDS011;4532;50.886;4.700;2023-07-13T07:41:29;9.50;;;2.70;;
8993;SDS011;4532;50.886;4.700;2023-07-13T07:44:02;10.60;;;2.80;;
8993;SDS011;4532;50.886;4.700;2023-07-13T07:46:32;11.80;;;3.10;;
8993;SDS011;4532;50.886;4.700;2023-07-13T07:48:59;8.55;;;3.05;;
8993;SDS011;4532;50.886;4.700;2023-07-13T07:51:27;9.77;;;2.78;;
8993;SDS011;4532;50.886;4.700;2023-07-13T07:53:57;9.13;;;2.97;;
8993;SDS011;4532;50.886;4.700;2023-07-13T07:56:25;8.05;;;2.53;;
8993;SDS011;4532;50.886;4.700;2023-07-13T07:58:55;7.72;;;2.58;;
8993;SDS011;4532;50.886;4.700;2023-07-13T08:01:25;8.35;;;2.67;;
8993;SDS011;4532;50.886;4.700;2023-07-13T08:03:58;8.85;;;2.70;;
8993;SDS011;4532;50.886;4.700;2023-07-13T08:06:28;8.90;;;2.88;;
8993;SDS011;4532;50.886;4.700;2023-07-13T08:09:03;9.18;;;2.92;;
8993;SDS011;4532;50.886;4.700;2023-07-13T08:11:35;12.45;;;3.35;;
8993;SDS011;4532;50.886;4.700;2023-07-13T08:14:10;9.70;;;2.63;;
8993;SDS011;4532;50.886;4.700;2023-07-13T08:16:37;7.75;;;2.75;;
8993;SDS011;4532;50.886;4.700;2023-07-13T08:19:04;9.88;;;3.05;;
8993;SDS011;4532;50.886;4.700;2023-07-13T08:21:32;8.40;;;3.10;;
8993;SDS011;4532;50.886;4.700;2023-07-13T08:24:02;8.35;;;2.45;;
8993;SDS011;4532;50.886;4.700;2023-07-13T08:26:32;6.57;;;2.55;;
8993;SDS011;4532;50.886;4.700;2023-07-13T08:28:59;9.20;;;2.83;;
8993;SDS011;4532;50.886;4.700;2023-07-13T08:31:26;9.18;;;3.10;;
8993;SDS011;4532;50.886;4.700;2023-07-13T08:33:56;7.95;;;2.85;;
8993;SDS011;4532;50.886;4.700;2023-07-13T08:36:24;6.70;;;2.20;;
8993;SDS011;4532;50.886;4.700;2023-07-13T08:38:57;6.70;;;2.38;;
8993;SDS011;4532;50.886;4.700;2023-07-13T08:41:50;7.85;;;2.53;;
8993;SDS011;4532;50.886;4.700;2023-07-13T08:47:21;8.52;;;2.70;;
8993;SDS011;4532;50.886;4.700;2023-07-13T08:49:52;7.90;;;2.15;;
8993;SDS011;4532;50.886;4.700;2023-07-13T08:52:34;7.68;;;2.42;;
8993;SDS011;4532;50.886;4.700;2023-07-13T08:55:05;6.00;;;2.47;;
8993;SDS011;4532;50.886;4.700;2023-07-13T08:57:42;8.23;;;2.38;;
8993;SDS011;4532;50.886;4.700;2023-07-13T09:00:16;7.47;;;2.70;;
8993;SDS011;4532;50.886;4.700;2023-07-13T09:05:30;5.97;;;2.22;;
8993;SDS011;4532;50.886;4.700;2023-07-13T09:10:42;4.80;;;2.13;;
8993;SDS011;4532;50.886;4.700;2023-07-13T09:13:27;6.60;;;2.20;;
8993;SDS011;4532;50.886;4.700;2023-07-13T09:16:07;7.85;;;2.28;;
8993;SDS011;4532;50.886;4.700;2023-07-13T09:18:43;8.50;;;2.22;;
8993;SDS011;4532;50.886;4.700;2023-07-13T09:21:23;6.93;;;2.40;;
8993;SDS011;4532;50.886;4.700;2023-07-13T09:23:59;9.48;;;2.22;;
8993;SDS011;4532;50.886;4.700;2023-07-13T09:26:40;6.25;;;2.15;;
8993;SDS011;4532;50.886;4.700;2023-07-13T09:29:16;8.98;;;2.22;;
8993;SDS011;4532;50.886;4.700;2023-07-13T09:31:57;5.28;;;1.92;;
8993;SDS011;4532;50.886;4.700;2023-07-13T09:34:28;4.88;;;1.77;;
8993;SDS011;4532;50.886;4.700;2023-07-13T09:36:57;3.60;;;1.65;;
8993;SDS011;4532;50.886;4.700;2023-07-13T09:39:27;4.60;;;1.83;;
8993;SDS011;4532;50.886;4.700;2023-07-13T09:44:35;5.38;;;2.13;;
8993;SDS011;4532;50.886;4.700;2023-07-13T09:47:20;5.65;;;2.33;;
8993;SDS011;4532;50.886;4.700;2023-07-13T09:49:56;6.97;;;2.35;;
8993;SDS011;4532;50.886;4.700;2023-07-13T09:57:55;6.07;;;2.10;;
8993;SDS011;4532;50.886;4.700;2023-07-13T10:00:27;5.85;;;2.10;;
8993;SDS011;4532;50.886;4.700;2023-07-13T10:02:59;5.53;;;2.20;;
8993;SDS011;4532;50.886;4.700;2023-07-13T10:05:42;4.47;;;1.80;;
8993;SDS011;4532;50.886;4.700;2023-07-13T10:08:18;6.53;;;1.83;;
8993;SDS011;4532;50.886;4.700;2023-07-13T10:10:57;5.78;;;2.20;;
8993;SDS011;4532;50.886;4.700;2023-07-13T10:13:39;5.03;;;2.00;;
8993;SDS011;4532;50.886;4.700;2023-07-13T10:16:09;5.63;;;1.70;;
8993;SDS011;4532;50.886;4.700;2023-07-13T10:21:14;4.20;;;1.80;;
8993;SDS011;4532;50.886;4.700;2023-07-13T10:23:45;4.72;;;2.00;;
8993;SDS011;4532;50.886;4.700;2023-07-13T10:26:21;3.67;;;1.73;;
8993;SDS011;4532;50.886;4.700;2023-07-13T10:28:56;4.32;;;2.03;;
8993;SDS011;4532;50.886;4.700;2023-07-13T10:31:28;4.07;;;1.80;;
8993;SDS011;4532;50.886;4.700;2023-07-13T10:34:01;5.78;;;1.95;;
8993;SDS011;4532;50.886;4.700;2023-07-13T10:36:45;6.03;;;1.70;;
8993;SDS011;4532;50.886;4.700;2023-07-13T10:39:15;6.63;;;1.77;;
8993;SDS011;4532;50.886;4.700;2023-07-13T10:41:55;5.90;;;2.13;;
8993;SDS011;4532;50.886;4.700;2023-07-13T10:44:31;5.85;;;1.98;;
8993;SDS011;4532;50.886;4.700;2023-07-13T10:47:15;6.35;;;2.10;;
8993;SDS011;4532;50.886;4.700;2023-07-13T10:49:46;6.95;;;1.90;;
8993;SDS011;4532;50.886;4.700;2023-07-13T11:09:08;4.07;;;1.55;;
8993;SDS011;4532;50.886;4.700;2023-07-13T11:11:47;3.42;;;1.58;;
8993;SDS011;4532;50.886;4.700;2023-07-13T11:17:32;4.03;;;1.33;;
8993;SDS011;4532;50.886;4.700;2023-07-13T11:23:06;5.22;;;1.83;;
8993;SDS011;4532;50.886;4.700;2023-07-13T11:25:40;5.03;;;1.75;;
8993;SDS011;4532;50.886;4.700;2023-07-13T11:30:49;6.38;;;1.85;;
8993;SDS011;4532;50.886;4.700;2023-07-13T11:36:06;5.03;;;1.67;;
8993;SDS011;4532;50.886;4.700;2023-07-13T11:41:31;7.18;;;1.85;;
8993;SDS011;4532;50.886;4.700;2023-07-13T11:44:16;4.57;;;1.83;;
8993;SDS011;4532;50.886;4.700;2023-07-13T11:46:49;3.95;;;1.65;;
8993;SDS011;4532;50.886;4.700;2023-07-13T11:49:25;4.38;;;1.67;;
8993;SDS011;4532;50.886;4.700;2023-07-13T11:51:59;5.22;;;1.80;;
8993;SDS011;4532;50.886;4.700;2023-07-13T11:54:33;4.40;;;1.30;;
8993;SDS011;4532;50.886;4.700;2023-07-13T11:57:19;3.78;;;1.40;;
8993;SDS011;4532;50.886;4.700;2023-07-13T11:59:54;6.50;;;1.65;;
8993;SDS011;4532;50.886;4.700;2023-07-13T12:02:26;3.20;;;1.20;;
8993;SDS011;4532;50.886;4.700;2023-07-13T12:04:59;3.38;;;1.25;;
8993;SDS011;4532;50.886;4.700;2023-07-13T12:07:34;5.47;;;1.52;;
8993;SDS011;4532;50.886;4.700;2023-07-13T12:10:15;4.40;;;1.30;;
8993;SDS011;4532;50.886;4.700;2023-07-13T12:12:54;3.70;;;1.40;;
8993;SDS011;4532;50.886;4.700;2023-07-13T12:15:37;7.15;;;1.65;;
8993;SDS011;4532;50.886;4.700;2023-07-13T12:18:14;4.15;;;1.33;;
8993;SDS011;4532;50.886;4.700;2023-07-13T12:20:49;4.82;;;1.40;;
8993;SDS011;4532;50.886;4.700;2023-07-13T12:25:54;3.75;;;1.40;;
8993;SDS011;4532;50.886;4.700;2023-07-13T12:28:45;11.68;;;1.70;;
8993;SDS011;4532;50.886;4.700;2023-07-13T12:31:23;2.92;;;1.23;;
8993;SDS011;4532;50.886;4.700;2023-07-13T12:36:40;5.78;;;1.25;;
8993;SDS011;4532;50.886;4.700;2023-07-13T12:39:17;13.60;;;1.70;;
8993;SDS011;4532;50.886;4.700;2023-07-13T12:41:50;3.80;;;1.40;;
8993;SDS011;4532;50.886;4.700;2023-07-13T12:44:27;3.08;;;1.58;;
8993;SDS011;4532;50.886;4.700;2023-07-13T12:46:57;2.42;;;1.40;;
8993;SDS011;4532;50.886;4.700;2023-07-13T12:49:33;2.60;;;1.40;;
8993;SDS011;4532;50.886;4.700;2023-07-13T12:52:03;5.10;;;1.63;;
8993;SDS011;4532;50.886;4.700;2023-07-13T12:54:41;3.42;;;1.50;;
8993;SDS011;4532;50.886;4.700;2023-07-13T12:57:21;3.58;;;1.48;;
8993;SDS011;4532;50.886;4.700;2023-07-13T12:59:54;3.67;;;1.60;;
8993;SDS011;4532;50.886;4.700;2023-07-13T13:04:59;3.15;;;1.50;;
8993;SDS011;4532;50.886;4.700;2023-07-13T13:07:34;3.13;;;1.48;;
8993;SDS011;4532;50.886;4.700;2023-07-13T13:10:10;2.80;;;1.27;;
8993;SDS011;4532;50.886;4.700;2023-07-13T13:12:39;2.08;;;1.15;;
8993;SDS011;4532;50.886;4.700;2023-07-13T13:15:09;2.85;;;1.23;;
8993;SDS011;4532;50.886;4.700;2023-07-13T13:17:40;3.03;;;1.20;;
8993;SDS011;4532;50.886;4.700;2023-07-13T13:20:14;1.85;;;1.15;;
8993;SDS011;4532;50.886;4.700;2023-07-13T13:22:43;3.35;;;1.30;;
8993;SDS011;4532;50.886;4.700;2023-07-13T13:25:11;2.33;;;1.30;;
8993;SDS011;4532;50.886;4.700;2023-07-13T13:27:41;2.28;;;1.20;;
8993;SDS011;4532;50.886;4.700;2023-07-13T13:30:11;3.13;;;1.30;;
8993;SDS011;4532;50.886;4.700;2023-07-13T13:32:41;3.17;;;1.58;;
8993;SDS011;4532;50.886;4.700;2023-07-13T13:35:20;2.60;;;1.40;;
8993;SDS011;4532;50.886;4.700;2023-07-13T13:37:50;2.92;;;1.35;;
8993;SDS011;4532;50.886;4.700;2023-07-13T13:40:20;1.55;;;1.13;;
8993;SDS011;4532;50.886;4.700;2023-07-13T13:42:49;4.32;;;1.55;;
8993;SDS011;4532;50.886;4.700;2023-07-13T13:45:24;2.33;;;1.30;;
8993;SDS011;4532;50.886;4.700;2023-07-13T13:47:56;4.40;;;1.08;;
8993;SDS011;4532;50.886;4.700;2023-07-13T13:50:23;4.40;;;1.40;;
8993;SDS011;4532;50.886;4.700;2023-07-13T13:52:51;3.47;;;1.42;;
8993;SDS011;4532;50.886;4.700;2023-07-13T13:55:21;5.38;;;1.63;;
8993;SDS011;4532;50.886;4.700;2023-07-13T13:57:50;3.40;;;1.50;;
8993;SDS011;4532;50.886;4.700;2023-07-13T14:00:18;3.70;;;1.40;;
8993;SDS011;4532;50.886;4.700;2023-07-13T14:02:52;3.03;;;1.50;;
8993;SDS011;4532;50.886;4.700;2023-07-13T14:05:22;3.00;;;1.55;;
8993;SDS011;4532;50.886;4.700;2023-07-13T14:07:53;4.70;;;1.70;;
8993;SDS011;4532;50.886;4.700;2023-07-13T14:10:23;4.50;;;1.45;;
8993;SDS011;4532;50.886;4.700;2023-07-13T14:12:55;2.63;;;1.33;;
8993;SDS011;4532;50.886;4.700;2023-07-13T14:15:26;4.43;;;1.42;;
8993;SDS011;4532;50.886;4.700;2023-07-13T14:17:57;2.97;;;1.58;;
8993;SDS011;4532;50.886;4.700;2023-07-13T14:20:27;4.47;;;1.60;;
8993;SDS011;4532;50.886;4.700;2023-07-13T14:23:00;1.50;;;1.02;;
8993;SDS011;4532;50.886;4.700;2023-07-13T14:25:28;2.47;;;1.40;;
8993;SDS011;4532;50.886;4.700;2023-07-13T14:27:56;2.47;;;1.50;;
8993;SDS011;4532;50.886;4.700;2023-07-13T14:30:37;2.65;;;1.30;;
8993;SDS011;4532;50.886;4.700;2023-07-13T14:33:08;2.28;;;1.23;;
8993;SDS011;4532;50.886;4.700;2023-07-13T14:35:36;3.53;;;1.50;;
8993;SDS011;4532;50.886;4.700;2023-07-13T14:38:09;2.95;;;1.42;;
8993;SDS011;4532;50.886;4.700;2023-07-13T14:40:43;2.38;;;1.58;;
8993;SDS011;4532;50.886;4.700;2023-07-13T14:43:11;4.57;;;1.73;;
8993;SDS011;4532;50.886;4.700;2023-07-13T14:45:44;4.32;;;1.60;;
8993;SDS011;4532;50.886;4.700;2023-07-13T14:48:20;2.33;;;1.17;;
8993;SDS011;4532;50.886;4.700;2023-07-13T14:50:53;4.95;;;1.60;;
8993;SDS011;4532;50.886;4.700;2023-07-13T14:53:26;2.63;;;1.52;;
8993;SDS011;4532;50.886;4.700;2023-07-13T14:55:54;3.42;;;1.40;;
8993;SDS011;4532;50.886;4.700;2023-07-13T14:58:26;2.72;;;1.42;;
8993;SDS011;4532;50.886;4.700;2023-07-13T15:00:57;2.55;;;1.45;;
8993;SDS011;4532;50.886;4.700;2023-07-13T15:03:27;2.83;;;1.42;;
8993;SDS011;4532;50.886;4.700;2023-07-13T15:05:57;4.45;;;1.77;;
8993;SDS011;4532;50.886;4.700;2023-07-13T15:08:24;2.97;;;1.67;;
8993;SDS011;4532;50.886;4.700;2023-07-13T15:10:54;2.95;;;1.45;;
8993;SDS011;4532;50.886;4.700;2023-07-13T15:13:26;3.00;;;1.42;;
8993;SDS011;4532;50.886;4.700;2023-07-13T15:15:55;2.55;;;1.40;;
8993;SDS011;4532;50.886;4.700;2023-07-13T15:18:24;5.22;;;1.60;;
8993;SDS011;4532;50.886;4.700;2023-07-13T15:20:56;3.53;;;1.90;;
8993;SDS011;4532;50.886;4.700;2023-07-13T15:23:29;3.65;;;1.40;;
8993;SDS011;4532;50.886;4.700;2023-07-13T15:25:56;4.57;;;1.42;;
8993;SDS011;4532;50.886;4.700;2023-07-13T15:28:23;3.88;;;1.55;;
8993;SDS011;4532;50.886;4.700;2023-07-13T15:30:51;3.13;;;1.25;;
8993;SDS011;4532;50.886;4.700;2023-07-13T15:33:23;2.38;;;1.30;;
8993;SDS011;4532;50.886;4.700;2023-07-13T15:35:56;2.22;;;1.40;;
8993;SDS011;4532;50.886;4.700;2023-07-13T15:38:27;3.83;;;1.60;;
8993;SDS011;4532;50.886;4.700;2023-07-13T15:40:59;3.60;;;1.40;;
8993;SDS011;4532;50.886;4.700;2023-07-13T15:43:31;2.90;;;1.50;;
8993;SDS011;4532;50.886;4.700;2023-07-13T15:46:01;3.30;;;1.52;;
8993;SDS011;4532;50.886;4.700;2023-07-13T15:48:33;1.45;;;1.17;;
8993;SDS011;4532;50.886;4.700;2023-07-13T15:51:01;2.85;;;1.50;;
8993;SDS011;4532;50.886;4.700;2023-07-13T15:53:33;2.50;;;1.20;;
8993;SDS011;4532;50.886;4.700;2023-07-13T15:56:02;3.08;;;1.40;;
8993;SDS011;4532;50.886;4.700;2023-07-13T15:58:37;1.88;;;1.30;;
8993;SDS011;4532;50.886;4.700;2023-07-13T16:01:08;2.10;;;1.45;;
8993;SDS011;4532;50.886;4.700;2023-07-13T16:03:37;4.03;;;1.48;;
8993;SDS011;4532;50.886;4.700;2023-07-13T16:06:18;4.65;;;1.30;;
8993;SDS011;4532;50.886;4.700;2023-07-13T16:08:55;2.75;;;1.20;;
8993;SDS011;4532;50.886;4.700;2023-07-13T16:11:23;4.35;;;1.77;;
8993;SDS011;4532;50.886;4.700;2023-07-13T16:13:54;2.78;;;1.45;;
8993;SDS011;4532;50.886;4.700;2023-07-13T16:16:22;3.42;;;2.00;;
8993;SDS011;4532;50.886;4.700;2023-07-13T16:18:53;3.38;;;1.42;;
8993;SDS011;4532;50.886;4.700;2023-07-13T16:21:32;3.25;;;1.20;;
8993;SDS011;4532;50.886;4.700;2023-07-13T16:24:05;2.90;;;1.60;;
8993;SDS011;4532;50.886;4.700;2023-07-13T16:26:41;2.75;;;1.65;;
8993;SDS011;4532;50.886;4.700;2023-07-13T16:34:27;3.72;;;1.63;;
8993;SDS011;4532;50.886;4.700;2023-07-13T16:36:55;2.30;;;1.35;;
8993;SDS011;4532;50.886;4.700;2023-07-13T16:39:24;1.98;;;1.77;;
8993;SDS011;4532;50.886;4.700;2023-07-13T16:41:55;2.72;;;1.63;;
8993;SDS011;4532;50.886;4.700;2023-07-13T16:44:24;4.32;;;1.70;;